Peru, Indiana
Current Conditions -  °F | °C
As of 8:58 PM on Friday 28 Nov 2014 (Local Time) from KGUS Reporting Station
Overcast Overcast  
Wind Chill: 20°   Ceiling: 15000
Heat Index: 30°   Visibility: 10mi
Dew Point: 26°   Wind: 13mph
Humidity: 83%   Direction: 160°SSE
Pressure: 30.03"   Gusts: NA
Location:  40.75°N, 86.07°W
Report Text: KGUS 290158Z AUTO 16011KT 10SM BKN150 OVC190 M01/M03 A3003 RMK AO2 SLP182 T10091035
Loading
Personal Weather Stations






























Interactive Weather Map New forecast layout! Learn more

10-Day Weather Forecast

Advertisements
Track Severe Weather on mobile